createdAt,value
2023-04-20T00:06:33.019Z,99754.94
2023-04-20T00:16:35.569Z,99753.22
2023-04-20T00:26:38.090Z,99753.75
2023-04-20T00:36:40.724Z,99744.06
2023-04-20T00:46:43.389Z,99736.63
2023-04-20T00:56:46.160Z,99733.38
2023-04-20T01:06:48.785Z,99724.59
2023-04-20T01:16:52.095Z,99722.09
2023-04-20T01:26:54.733Z,99711.94
2023-04-20T01:36:57.459Z,99712.41
2023-04-20T01:47:00.058Z,99722.13
2023-04-20T01:57:02.795Z,99718.50
2023-04-20T02:07:05.324Z,99720.25
2023-04-20T02:17:07.889Z,99703.16
2023-04-20T02:27:11.110Z,99707.72
2023-04-20T02:37:15.507Z,99712.31
2023-04-20T02:47:18.959Z,99713.88
2023-04-20T02:57:22.264Z,99719.75
2023-04-20T03:07:24.915Z,99732.53
2023-04-20T03:17:28.563Z,99717.84
2023-04-20T03:27:31.289Z,99727.31
2023-04-20T03:37:41.451Z,99724.00
2023-04-20T03:47:44.184Z,99730.13
2023-04-20T03:57:46.645Z,99729.09
2023-04-20T04:07:49.664Z,99727.06
2023-04-20T04:17:54.313Z,99747.56
2023-04-20T04:27:58.173Z,99749.41
2023-04-20T04:38:02.533Z,99745.03
2023-04-20T04:48:08.132Z,99760.22
2023-04-20T04:58:11.804Z,99754.06
2023-04-20T05:08:14.317Z,99767.13
2023-04-20T05:18:17.049Z,99763.38
2023-04-20T05:28:19.615Z,99770.50
2023-04-20T05:38:22.189Z,99772.91
2023-04-20T05:48:29.832Z,99783.56
2023-04-20T05:58:33.777Z,99777.78
2023-04-20T06:08:36.566Z,99787.63
2023-04-20T06:18:39.323Z,99786.22
2023-04-20T06:28:41.979Z,99784.72
2023-04-20T06:38:45.674Z,99782.22
2023-04-20T06:48:48.166Z,99783.78
2023-04-20T06:58:51.144Z,99788.06
2023-04-20T07:08:53.658Z,99802.38
2023-04-20T07:18:56.500Z,99808.53
2023-04-20T07:28:59.080Z,99806.69
2023-04-20T07:39:01.555Z,99812.78
2023-04-20T07:49:04.310Z,99813.09
2023-04-20T07:59:07.065Z,99810.03
2023-04-20T08:09:11.980Z,99797.81
2023-04-20T08:19:16.022Z,99794.50
2023-04-20T08:29:18.586Z,99794.78
2023-04-20T08:39:22.405Z,99791.06
2023-04-20T08:49:28.613Z,99789.25
2023-04-20T08:59:32.050Z,99786.09
2023-04-20T09:09:34.548Z,99779.84
2023-04-20T09:19:37.032Z,99780.81
2023-04-20T09:29:39.990Z,99772.75
2023-04-20T09:39:44.668Z,99768.16
2023-04-20T09:49:47.760Z,99767.38
2023-04-20T09:59:53.263Z,99755.69
2023-04-20T10:10:08.661Z,99742.06
2023-04-20T10:20:28.119Z,99754.75
2023-04-20T10:30:32.616Z,99744.50
2023-04-20T10:40:35.157Z,99727.13
2023-04-20T10:50:38.081Z,99720.19
2023-04-20T11:00:40.588Z,99707.31
2023-04-20T11:10:43.976Z,99690.69
2023-04-20T11:20:54.075Z,99687.50
2023-04-20T11:30:58.002Z,99685.31
2023-04-20T11:41:04.793Z,99683.88
2023-04-20T11:51:07.343Z,99682.00
2023-04-20T12:01:10.479Z,99691.44
2023-04-20T12:11:13.085Z,99675.19
2023-04-20T12:21:15.802Z,99669.44
2023-04-20T12:31:18.354Z,99657.97
2023-04-20T12:41:22.876Z,99650.63
2023-04-20T12:51:25.298Z,99648.91
2023-04-20T13:01:27.803Z,99645.22
2023-04-20T13:11:30.676Z,99633.69
2023-04-20T13:21:33.405Z,99621.47
2023-04-20T13:31:37.194Z,99629.75
2023-04-20T13:41:40.131Z,99613.47
2023-04-20T13:51:42.713Z,99610.38
2023-04-20T14:01:45.382Z,99598.53
2023-04-20T14:11:50.814Z,99601.19
2023-04-20T14:21:56.027Z,99591.66
2023-04-20T14:32:05.782Z,99593.84
2023-04-20T14:42:08.252Z,99579.91
2023-04-20T14:52:11.041Z,99586.59
2023-04-20T15:02:14.232Z,99578.13
2023-04-20T15:12:16.753Z,99562.34
2023-04-20T15:22:19.342Z,99565.22
2023-04-20T15:32:21.878Z,99548.69
2023-04-20T15:42:24.507Z,99558.31
2023-04-20T15:52:31.294Z,99562.91
2023-04-20T16:02:34.011Z,99556.81
2023-04-20T16:12:36.737Z,99556.38
2023-04-20T16:22:39.442Z,99555.78
2023-04-20T16:32:42.321Z,99562.34
2023-04-20T16:42:44.847Z,99568.72
2023-04-20T16:52:47.943Z,99579.09
2023-04-20T17:02:50.610Z,99591.78
2023-04-20T17:12:53.234Z,99589.97
2023-04-20T17:22:55.787Z,99603.19
2023-04-20T17:33:00.315Z,99608.56
2023-04-20T17:43:02.864Z,99614.25
2023-04-20T17:53:07.098Z,99625.91
2023-04-20T18:03:10.329Z,99626.00
2023-04-20T18:13:13.208Z,99637.31
2023-04-20T18:23:15.827Z,99651.53
2023-04-20T18:33:18.450Z,99660.34
2023-04-20T18:43:21.212Z,99646.13
2023-04-20T18:53:24.011Z,99656.84
2023-04-20T19:03:27.106Z,99670.22
2023-04-20T19:13:30.587Z,99656.69
2023-04-20T19:23:35.677Z,99670.34
2023-04-20T19:33:40.226Z,99683.97
2023-04-20T19:43:43.372Z,99672.00
2023-04-20T19:53:46.623Z,99692.88
2023-04-20T20:03:49.477Z,99691.94
2023-04-20T20:13:52.604Z,99706.19
2023-04-20T20:23:55.291Z,99698.25
2023-04-20T20:33:57.756Z,99700.34
2023-04-20T20:44:00.562Z,99691.00
2023-04-20T20:54:03.304Z,99691.19
2023-04-20T21:04:06.042Z,99698.25
2023-04-20T21:14:08.621Z,99724.28
2023-04-20T21:24:11.038Z,99712.81
2023-04-20T21:34:13.480Z,99712.59
2023-04-20T21:44:15.866Z,99716.22
2023-04-20T21:54:18.260Z,99707.03
2023-04-20T22:04:20.770Z,99714.66
2023-04-20T22:14:23.615Z,99720.78
2023-04-20T22:24:26.095Z,99731.59
2023-04-20T22:34:28.498Z,99736.16
2023-04-20T22:44:30.843Z,99726.38
2023-04-20T22:54:33.342Z,99740.38
2023-04-20T23:04:37.729Z,99751.41
2023-04-20T23:14:42.724Z,99739.34
2023-04-20T23:24:45.451Z,99745.41
2023-04-20T23:34:47.968Z,99751.00
2023-04-20T23:44:50.440Z,99736.50
2023-04-20T23:54:52.887Z,99739.94
